Queen Of Nanaimo — VCNX — position and weather

sailwx.info

Track history (hours):
 
Tides and Currents Weather Stations Pressure Air Temp Water Temp Dewpoint Dewpoint Depression Visibility Wind Speed Wind Dir Waves Ship Positions

Queen Of Nanaimo

Last reported at 2016-Sep-29 19:31 UTC. Time now 2016-Sep-29 20:24 UTC.
Position N 48°48' W 123°19'.

Length 130 m; draft 4 m.

Type: Passenger vessel. MMSI: 316001254.

Date/timePositionNaut miles runAvg speedWind from/ knotsBaromVisibWave heightAir tempDewpointWater temp
2016-Sep-29 19:31N 48°48' W 123°19'14 4.9
2016-Sep-29 16:33N 49°00' W 123°08'1110.6
2016-Sep-29 15:33N 48°53' W 123°19'2 1.9
2016-Sep-29 14:32N 48°51' W 123°20'3 3.5
2016-Sep-29 13:33N 48°49' W 123°24'3 0.5
2016-Sep-29 08:21N 48°51' W 123°27'5 0.7
2016-Sep-29 00:33N 48°53' W 123°19'5 1.8
2016-Sep-28 21:33N 48°51' W 123°27'6 2.8
2016-Sep-28 19:25N 48°48' W 123°19'14 5.0
2016-Sep-28 16:33N 49°00' W 123°08'1010.3
2016-Sep-28 15:34N 48°53' W 123°18'0 0.0
2016-Sep-28 03:22N 48°53' W 123°19'1012.1
2016-Sep-28 02:33N 48°60' W 123°09'1 0.9
2016-Sep-28 01:33N 49°00' W 123°08'12 1.1
2016-Sep-27 14:32N 48°51' W 123°20'3 3.5
2016-Sep-27 13:33N 48°49' W 123°24'5 0.4
2016-Sep-27 00:33N 48°53' W 123°19'5 1.3
2016-Sep-26 20:33N 48°51' W 123°27'6 6.0
2016-Sep-26 19:33N 48°48' W 123°19'5 1.2
2016-Sep-26 15:33N 48°53' W 123°19'5 2.4
2016-Sep-26 13:33N 48°50' W 123°25'2 0.9
2016-Sep-26 11:19N 48°51' W 123°27'0 0.0
2016-Sep-26 08:16N 48°51' W 123°27'6 1.1
2016-Sep-26 02:33N 48°53' W 123°18'10 9.7
2016-Sep-26 01:33N 49°00' W 123°08'9 8.6
2016-Sep-26 00:34N 48°54' W 123°16'7 2.5
2016-Sep-25 21:33N 48°51' W 123°27'16 3.9
2016-Sep-25 17:33N 49°00' W 123°08'1010.3
2016-Sep-25 16:33N 48°53' W 123°18'2 2.2
2016-Sep-25 15:32N 48°51' W 123°20'4 3.6
2016-Sep-25 14:33N 48°50' W 123°25'2 1.0
2016-Sep-25 12:24N 48°51' W 123°27'0 0.0
2016-Sep-25 10:18N 48°51' W 123°27'0 0.0
2016-Sep-25 09:27N 48°51' W 123°27'10 2.1
2016-Sep-25 04:33N 48°57' W 123°14'6 1.4
2016-Sep-25 00:33N 48°53' W 123°19'6 2.7
2016-Sep-24 22:33N 48°51' W 123°27'0 0.0
2016-Sep-24 21:33N 48°51' W 123°27'11 5.6
2016-Sep-24 19:34N 48°57' W 123°13'2 2.0
2016-Sep-24 18:34N 48°58' W 123°10'10 8.2
2016-Sep-24 17:22N 48°51' W 123°20'2 2.4
2016-Sep-24 16:33N 48°53' W 123°19'7 3.5
2016-Sep-24 14:33N 48°57' W 123°11'12 6.0
2016-Sep-24 12:33N 48°51' W 123°27'0 0.0
2016-Sep-24 10:32N 48°51' W 123°27'0 0.0
2016-Sep-24 09:33N 48°51' W 123°27'8 1.4
2016-Sep-24 03:33N 48°55' W 123°16'8 7.5
2016-Sep-24 02:34N 49°00' W 123°08'9 8.5
2016-Sep-24 01:33N 48°54' W 123°16'3 3.4
2016-Sep-24 00:33N 48°52' W 123°20'4 0.7
2016-Sep-23 19:24N 48°48' W 123°19'12 6.6
2016-Sep-23 17:33N 48°59' W 123°10'2 2.4
2016-Sep-23 16:33N 49°00' W 123°08'10 9.7
2016-Sep-23 15:33N 48°53' W 123°18'6 3.0
2016-Sep-23 13:33N 48°49' W 123°24'2 0.6
2016-Sep-23 09:33N 48°51' W 123°27'0 0.0
2016-Sep-23 06:30N 48°51' W 123°27'6 2.8
2016-Sep-23 04:33N 48°48' W 123°20'5 4.0
2016-Sep-23 03:23N 48°53' W 123°19'1012.4
2016-Sep-23 02:34N 49°00' W 123°08'0 0.5
2016-Sep-23 01:33N 49°00' W 123°08'1110.7
2016-Sep-23 00:33N 48°53' W 123°19'2 1.9
2016-Sep-22 23:33N 48°51' W 123°20'5 1.5
2016-Sep-22 20:31N 48°51' W 123°27'0 0.0
2016-Sep-22 12:33N 48°51' W 123°27'6 0.7
2016-Sep-22 04:33N 48°48' W 123°19'5 4.7
2016-Sep-22 03:32N 48°53' W 123°19'0 0.0
2016-Sep-22 00:33N 48°53' W 123°19'2 1.9
2016-Sep-21 23:32N 48°51' W 123°20'3 3.4
2016-Sep-21 22:33N 48°50' W 123°25'4 1.3
2016-Sep-21 19:33N 48°48' W 123°19'15 4.9
2016-Sep-21 16:33N 49°00' W 123°08'11 0.8
2016-Sep-21 03:33N 48°53' W 123°19'8 8.5
2016-Sep-21 02:33N 48°59' W 123°11'2 0.2
2016-Sep-20 17:33N 48°57' W 123°12'9 2.8
2016-Sep-20 14:33N 48°51' W 123°20'3 3.3
2016-Sep-20 13:33N 48°49' W 123°24'2 0.4
2016-Sep-20 07:21N 48°51' W 123°27'14 3.0
2016-Sep-20 02:33N 48°60' W 123°09'12 3.9
2016-Sep-19 23:34N 48°51' W 123°20'3 0.7
2016-Sep-19 19:31N 48°48' W 123°19'  
Track history (hours):
 
Tides and Currents Weather Stations Pressure Air Temp Water Temp Dewpoint Dewpoint Depression Visibility Wind Speed Wind Dir Waves Ship Positions

Queen Of Nanaimo

Last reported at 2016-Sep-29 19:31 UTC. Time now 2016-Sep-29 20:24 UTC.
Position N 48°48' W 123°19'.

Length 130 m; draft 4 m.

Type: Passenger vessel. MMSI: 316001254.

Date/timePositionNaut miles runAvg speedWind from/ knotsBaromVisibWave heightAir tempDewpointWater temp
2016-Sep-29 19:31N 48°48' W 123°19'14 4.9
2016-Sep-29 16:33N 49°00' W 123°08'1110.6
2016-Sep-29 15:33N 48°53' W 123°19'2 1.9
2016-Sep-29 14:32N 48°51' W 123°20'3 3.5
2016-Sep-29 13:33N 48°49' W 123°24'3 0.5
2016-Sep-29 08:21N 48°51' W 123°27'5 0.7
2016-Sep-29 00:33N 48°53' W 123°19'5 1.8
2016-Sep-28 21:33N 48°51' W 123°27'6 2.8
2016-Sep-28 19:25N 48°48' W 123°19'14 5.0
2016-Sep-28 16:33N 49°00' W 123°08'1010.3
2016-Sep-28 15:34N 48°53' W 123°18'0 0.0
2016-Sep-28 03:22N 48°53' W 123°19'1012.1
2016-Sep-28 02:33N 48°60' W 123°09'1 0.9
2016-Sep-28 01:33N 49°00' W 123°08'12 1.1
2016-Sep-27 14:32N 48°51' W 123°20'3 3.5
2016-Sep-27 13:33N 48°49' W 123°24'5 0.4
2016-Sep-27 00:33N 48°53' W 123°19'5 1.3
2016-Sep-26 20:33N 48°51' W 123°27'6 6.0
2016-Sep-26 19:33N 48°48' W 123°19'5 1.2
2016-Sep-26 15:33N 48°53' W 123°19'5 2.4
2016-Sep-26 13:33N 48°50' W 123°25'2 0.9
2016-Sep-26 11:19N 48°51' W 123°27'0 0.0
2016-Sep-26 08:16N 48°51' W 123°27'6 1.1
2016-Sep-26 02:33N 48°53' W 123°18'10 9.7
2016-Sep-26 01:33N 49°00' W 123°08'9 8.6
2016-Sep-26 00:34N 48°54' W 123°16'7 2.5
2016-Sep-25 21:33N 48°51' W 123°27'16 3.9
2016-Sep-25 17:33N 49°00' W 123°08'1010.3
2016-Sep-25 16:33N 48°53' W 123°18'2 2.2
2016-Sep-25 15:32N 48°51' W 123°20'4 3.6
2016-Sep-25 14:33N 48°50' W 123°25'2 1.0
2016-Sep-25 12:24N 48°51' W 123°27'0 0.0
2016-Sep-25 10:18N 48°51' W 123°27'0 0.0
2016-Sep-25 09:27N 48°51' W 123°27'10 2.1
2016-Sep-25 04:33N 48°57' W 123°14'6 1.4
2016-Sep-25 00:33N 48°53' W 123°19'6 2.7
2016-Sep-24 22:33N 48°51' W 123°27'0 0.0
2016-Sep-24 21:33N 48°51' W 123°27'11 5.6
2016-Sep-24 19:34N 48°57' W 123°13'2 2.0
2016-Sep-24 18:34N 48°58' W 123°10'10 8.2
2016-Sep-24 17:22N 48°51' W 123°20'2 2.4
2016-Sep-24 16:33N 48°53' W 123°19'7 3.5
2016-Sep-24 14:33N 48°57' W 123°11'12 6.0
2016-Sep-24 12:33N 48°51' W 123°27'0 0.0
2016-Sep-24 10:32N 48°51' W 123°27'0 0.0
2016-Sep-24 09:33N 48°51' W 123°27'8 1.4
2016-Sep-24 03:33N 48°55' W 123°16'8 7.5
2016-Sep-24 02:34N 49°00' W 123°08'9 8.5
2016-Sep-24 01:33N 48°54' W 123°16'3 3.4
2016-Sep-24 00:33N 48°52' W 123°20'4 0.7
2016-Sep-23 19:24N 48°48' W 123°19'12 6.6
2016-Sep-23 17:33N 48°59' W 123°10'2 2.4
2016-Sep-23 16:33N 49°00' W 123°08'10 9.7
2016-Sep-23 15:33N 48°53' W 123°18'6 3.0
2016-Sep-23 13:33N 48°49' W 123°24'2 0.6
2016-Sep-23 09:33N 48°51' W 123°27'0 0.0
2016-Sep-23 06:30N 48°51' W 123°27'6 2.8
2016-Sep-23 04:33N 48°48' W 123°20'5 4.0
2016-Sep-23 03:23N 48°53' W 123°19'1012.4
2016-Sep-23 02:34N 49°00' W 123°08'0 0.5
2016-Sep-23 01:33N 49°00' W 123°08'1110.7
2016-Sep-23 00:33N 48°53' W 123°19'2 1.9
2016-Sep-22 23:33N 48°51' W 123°20'5 1.5
2016-Sep-22 20:31N 48°51' W 123°27'0 0.0
2016-Sep-22 12:33N 48°51' W 123°27'6 0.7
2016-Sep-22 04:33N 48°48' W 123°19'5 4.7
2016-Sep-22 03:32N 48°53' W 123°19'0 0.0
2016-Sep-22 00:33N 48°53' W 123°19'2 1.9
2016-Sep-21 23:32N 48°51' W 123°20'3 3.4
2016-Sep-21 22:33N 48°50' W 123°25'4 1.3
2016-Sep-21 19:33N 48°48' W 123°19'15 4.9
2016-Sep-21 16:33N 49°00' W 123°08'11 0.8
2016-Sep-21 03:33N 48°53' W 123°19'8 8.5
2016-Sep-21 02:33N 48°59' W 123°11'2 0.2
2016-Sep-20 17:33N 48°57' W 123°12'9 2.8
2016-Sep-20 14:33N 48°51' W 123°20'3 3.3
2016-Sep-20 13:33N 48°49' W 123°24'2 0.4
2016-Sep-20 07:21N 48°51' W 123°27'14 3.0
2016-Sep-20 02:33N 48°60' W 123°09'12 3.9
2016-Sep-19 23:34N 48°51' W 123°20'3 0.7
2016-Sep-19 19:31N 48°48' W 123°19'  

Dump ship's entire track history